sensor_id;sensor_type;location;lat;lon;timestamp;pressure;altitude;pressure_sealevel;temperature;humidity
30730;BME280;17476;48.458;7.928;2023-12-28T00:01:22;100176.69;;;8.11;65.97
30730;BME280;17476;48.458;7.928;2023-12-28T00:03:49;100181.19;;;8.19;65.75
30730;BME280;17476;48.458;7.928;2023-12-28T00:06:15;100181.59;;;8.24;67.16
30730;BME280;17476;48.458;7.928;2023-12-28T00:08:41;100179.09;;;8.32;67.25
30730;BME280;17476;48.458;7.928;2023-12-28T00:11:07;100182.84;;;8.20;65.23
30730;BME280;17476;48.458;7.928;2023-12-28T00:13:33;100172.34;;;8.02;67.28
30730;BME280;17476;48.458;7.928;2023-12-28T00:15:59;100176.13;;;8.17;67.60
30730;BME280;17476;48.458;7.928;2023-12-28T00:18:25;100175.56;;;8.24;67.50
30730;BME280;17476;48.458;7.928;2023-12-28T00:20:51;100164.88;;;8.27;65.54
30730;BME280;17476;48.458;7.928;2023-12-28T00:23:17;100177.38;;;8.13;67.87
30730;BME280;17476;48.458;7.928;2023-12-28T00:25:43;100170.69;;;8.01;67.21
30730;BME280;17476;48.458;7.928;2023-12-28T00:28:09;100163.03;;;8.00;66.38
30730;BME280;17476;48.458;7.928;2023-12-28T00:30:34;100163.72;;;8.02;67.02
30730;BME280;17476;48.458;7.928;2023-12-28T00:33:00;100172.84;;;8.15;67.56
30730;BME280;17476;48.458;7.928;2023-12-28T00:35:26;100178.72;;;8.17;67.11
30730;BME280;17476;48.458;7.928;2023-12-28T00:37:52;100181.47;;;8.16;65.81
30730;BME280;17476;48.458;7.928;2023-12-28T00:40:18;100182.25;;;8.26;68.14
30730;BME280;17476;48.458;7.928;2023-12-28T00:42:43;100178.31;;;8.12;64.55
30730;BME280;17476;48.458;7.928;2023-12-28T00:45:09;100186.13;;;8.12;65.91
30730;BME280;17476;48.458;7.928;2023-12-28T00:47:35;100198.53;;;8.01;64.99
30730;BME280;17476;48.458;7.928;2023-12-28T00:50:01;100191.34;;;8.12;67.80
30730;BME280;17476;48.458;7.928;2023-12-28T00:52:27;100198.91;;;8.15;65.67
30730;BME280;17476;48.458;7.928;2023-12-28T00:54:53;100194.09;;;8.11;66.58
30730;BME280;17476;48.458;7.928;2023-12-28T00:57:18;100193.53;;;8.17;68.32
30730;BME280;17476;48.458;7.928;2023-12-28T00:59:44;100194.81;;;8.03;66.12
30730;BME280;17476;48.458;7.928;2023-12-28T01:02:10;100198.94;;;7.96;67.05
30730;BME280;17476;48.458;7.928;2023-12-28T01:04:36;100201.66;;;8.04;66.10
30730;BME280;17476;48.458;7.928;2023-12-28T01:07:01;100211.38;;;8.12;66.55
30730;BME280;17476;48.458;7.928;2023-12-28T01:09:30;100214.00;;;8.02;64.33
30730;BME280;17476;48.458;7.928;2023-12-28T01:11:58;100217.44;;;8.03;64.38
30730;BME280;17476;48.458;7.928;2023-12-28T01:14:24;100221.66;;;8.13;67.02
30730;BME280;17476;48.458;7.928;2023-12-28T01:16:50;100217.81;;;8.17;64.33
30730;BME280;17476;48.458;7.928;2023-12-28T01:19:16;100222.03;;;8.18;66.19
30730;BME280;17476;48.458;7.928;2023-12-28T01:21:42;100219.84;;;8.24;65.99
30730;BME280;17476;48.458;7.928;2023-12-28T01:24:07;100216.72;;;8.10;63.93
30730;BME280;17476;48.458;7.928;2023-12-28T01:26:33;100215.50;;;8.05;63.98
30730;BME280;17476;48.458;7.928;2023-12-28T01:29:00;100220.25;;;8.19;65.10
30730;BME280;17476;48.458;7.928;2023-12-28T01:31:29;100226.19;;;8.11;64.46
30730;BME280;17476;48.458;7.928;2023-12-28T01:33:54;100223.81;;;8.28;64.54
30730;BME280;17476;48.458;7.928;2023-12-28T01:36:21;100225.97;;;8.32;62.33
30730;BME280;17476;48.458;7.928;2023-12-28T01:38:48;100228.06;;;8.38;62.60
30730;BME280;17476;48.458;7.928;2023-12-28T01:41:14;100229.38;;;8.52;62.76
30730;BME280;17476;48.458;7.928;2023-12-28T01:43:42;100226.50;;;8.55;62.56
30730;BME280;17476;48.458;7.928;2023-12-28T01:46:16;100238.50;;;8.29;62.58
30730;BME280;17476;48.458;7.928;2023-12-28T01:48:44;100251.22;;;8.32;62.96
30730;BME280;17476;48.458;7.928;2023-12-28T01:51:12;100246.56;;;8.45;64.01
30730;BME280;17476;48.458;7.928;2023-12-28T01:53:39;100249.88;;;8.37;62.75
30730;BME280;17476;48.458;7.928;2023-12-28T01:56:06;100262.63;;;8.40;62.44
30730;BME280;17476;48.458;7.928;2023-12-28T01:58:35;100261.53;;;8.43;62.24
30730;BME280;17476;48.458;7.928;2023-12-28T02:01:02;100278.34;;;8.58;64.14
30730;BME280;17476;48.458;7.928;2023-12-28T02:03:29;100268.41;;;8.71;59.87
30730;BME280;17476;48.458;7.928;2023-12-28T02:05:55;100268.66;;;8.78;59.80
30730;BME280;17476;48.458;7.928;2023-12-28T02:08:21;100268.34;;;8.91;60.43
30730;BME280;17476;48.458;7.928;2023-12-28T02:10:47;100275.09;;;8.84;60.71
30730;BME280;17476;48.458;7.928;2023-12-28T02:13:13;100267.94;;;8.86;61.19
30730;BME280;17476;48.458;7.928;2023-12-28T02:15:39;100271.19;;;8.97;59.34
30730;BME280;17476;48.458;7.928;2023-12-28T02:18:13;100261.88;;;8.95;60.05
30730;BME280;17476;48.458;7.928;2023-12-28T02:20:41;100260.41;;;9.10;58.66
30730;BME280;17476;48.458;7.928;2023-12-28T02:23:09;100263.50;;;9.23;57.23
30730;BME280;17476;48.458;7.928;2023-12-28T02:25:35;100259.84;;;9.34;57.05
30730;BME280;17476;48.458;7.928;2023-12-28T02:28:01;100263.81;;;9.38;57.87
30730;BME280;17476;48.458;7.928;2023-12-28T02:30:27;100251.81;;;9.45;58.24
30730;BME280;17476;48.458;7.928;2023-12-28T02:33:19;100250.19;;;9.62;56.27
30730;BME280;17476;48.458;7.928;2023-12-28T02:36:03;100249.56;;;9.68;55.56
30730;BME280;17476;48.458;7.928;2023-12-28T02:38:33;100248.38;;;9.63;57.82
30730;BME280;17476;48.458;7.928;2023-12-28T02:41:00;100243.00;;;9.64;55.82
30730;BME280;17476;48.458;7.928;2023-12-28T02:43:26;100240.78;;;9.69;55.60
30730;BME280;17476;48.458;7.928;2023-12-28T02:45:52;100246.00;;;9.69;56.60
30730;BME280;17476;48.458;7.928;2023-12-28T02:48:18;100250.91;;;9.72;55.59
30730;BME280;17476;48.458;7.928;2023-12-28T02:50:44;100251.03;;;9.89;55.82
30730;BME280;17476;48.458;7.928;2023-12-28T02:53:10;100257.22;;;9.88;55.35
30730;BME280;17476;48.458;7.928;2023-12-28T02:55:35;100261.47;;;9.89;55.87
30730;BME280;17476;48.458;7.928;2023-12-28T02:58:01;100262.44;;;9.88;56.08
30730;BME280;17476;48.458;7.928;2023-12-28T03:00:27;100257.16;;;9.97;55.23
30730;BME280;17476;48.458;7.928;2023-12-28T03:02:53;100256.41;;;10.05;55.42
30730;BME280;17476;48.458;7.928;2023-12-28T03:05:19;100263.63;;;10.11;54.98
30730;BME280;17476;48.458;7.928;2023-12-28T03:07:45;100259.06;;;10.13;54.24
30730;BME280;17476;48.458;7.928;2023-12-28T03:10:11;100250.19;;;10.24;54.13
30730;BME280;17476;48.458;7.928;2023-12-28T03:12:37;100252.84;;;10.32;53.49
30730;BME280;17476;48.458;7.928;2023-12-28T03:15:04;100255.72;;;10.47;53.32
30730;BME280;17476;48.458;7.928;2023-12-28T03:17:30;100261.31;;;10.52;53.46
30730;BME280;17476;48.458;7.928;2023-12-28T03:19:59;100256.69;;;10.46;55.08
30730;BME280;17476;48.458;7.928;2023-12-28T03:22:25;100265.84;;;10.50;53.67
30730;BME280;17476;48.458;7.928;2023-12-28T03:24:51;100264.38;;;10.47;54.69
30730;BME280;17476;48.458;7.928;2023-12-28T03:27:17;100263.81;;;10.35;54.48
30730;BME280;17476;48.458;7.928;2023-12-28T03:29:43;100268.78;;;10.47;53.98
30730;BME280;17476;48.458;7.928;2023-12-28T03:32:09;100266.56;;;10.60;53.33
30730;BME280;17476;48.458;7.928;2023-12-28T03:34:35;100258.56;;;10.61;53.26
30730;BME280;17476;48.458;7.928;2023-12-28T03:37:01;100259.09;;;10.65;54.80
30730;BME280;17476;48.458;7.928;2023-12-28T03:39:27;100250.72;;;10.61;54.41
30730;BME280;17476;48.458;7.928;2023-12-28T03:41:53;100241.06;;;10.62;55.35
30730;BME280;17476;48.458;7.928;2023-12-28T03:44:22;100241.69;;;10.56;55.01
30730;BME280;17476;48.458;7.928;2023-12-28T03:46:48;100231.13;;;10.65;55.41
30730;BME280;17476;48.458;7.928;2023-12-28T03:49:18;100230.63;;;10.62;55.75
30730;BME280;17476;48.458;7.928;2023-12-28T03:51:45;100230.47;;;10.63;56.42
30730;BME280;17476;48.458;7.928;2023-12-28T03:54:11;100231.97;;;10.74;56.91
30730;BME280;17476;48.458;7.928;2023-12-28T03:56:37;100229.72;;;10.45;57.71
30730;BME280;17476;48.458;7.928;2023-12-28T03:59:06;100239.53;;;10.43;57.64
30730;BME280;17476;48.458;7.928;2023-12-28T04:01:32;100228.91;;;10.45;56.91
30730;BME280;17476;48.458;7.928;2023-12-28T04:03:58;100220.13;;;10.54;55.38
30730;BME280;17476;48.458;7.928;2023-12-28T04:06:24;100219.53;;;10.68;55.89
30730;BME280;17476;48.458;7.928;2023-12-28T04:08:50;100213.69;;;10.82;54.37
30730;BME280;17476;48.458;7.928;2023-12-28T04:11:16;100197.34;;;10.80;54.75
30730;BME280;17476;48.458;7.928;2023-12-28T04:13:41;100182.81;;;10.86;55.38
30730;BME280;17476;48.458;7.928;2023-12-28T04:16:07;100185.28;;;10.96;55.23
30730;BME280;17476;48.458;7.928;2023-12-28T04:18:35;100190.16;;;10.90;53.19
30730;BME280;17476;48.458;7.928;2023-12-28T04:21:00;100205.41;;;11.03;54.87
30730;BME280;17476;48.458;7.928;2023-12-28T04:23:26;100208.47;;;10.90;55.82
30730;BME280;17476;48.458;7.928;2023-12-28T04:25:52;100223.53;;;10.88;56.36
30730;BME280;17476;48.458;7.928;2023-12-28T04:28:18;100220.91;;;10.88;56.85
30730;BME280;17476;48.458;7.928;2023-12-28T04:30:44;100222.91;;;11.03;56.88
30730;BME280;17476;48.458;7.928;2023-12-28T04:33:09;100232.91;;;10.99;56.15
30730;BME280;17476;48.458;7.928;2023-12-28T04:35:35;100221.78;;;11.05;61.00
30730;BME280;17476;48.458;7.928;2023-12-28T04:38:01;100227.22;;;11.12;61.95
30730;BME280;17476;48.458;7.928;2023-12-28T04:40:27;100227.50;;;11.09;61.58
30730;BME280;17476;48.458;7.928;2023-12-28T04:42:52;100232.56;;;11.02;60.51
30730;BME280;17476;48.458;7.928;2023-12-28T04:45:18;100230.63;;;11.04;62.79
30730;BME280;17476;48.458;7.928;2023-12-28T04:47:44;100227.16;;;10.96;60.17
30730;BME280;17476;48.458;7.928;2023-12-28T04:50:10;100234.13;;;10.79;60.81
30730;BME280;17476;48.458;7.928;2023-12-28T04:52:35;100236.72;;;10.71;60.52
30730;BME280;17476;48.458;7.928;2023-12-28T04:55:01;100236.66;;;10.62;61.96
30730;BME280;17476;48.458;7.928;2023-12-28T04:57:27;100225.59;;;10.77;63.04
30730;BME280;17476;48.458;7.928;2023-12-28T04:59:54;100236.44;;;10.90;62.00
30730;BME280;17476;48.458;7.928;2023-12-28T05:02:20;100246.97;;;10.98;61.20
30730;BME280;17476;48.458;7.928;2023-12-28T05:04:46;100245.28;;;10.89;60.61
30730;BME280;17476;48.458;7.928;2023-12-28T05:07:11;100244.97;;;10.92;62.74
30730;BME280;17476;48.458;7.928;2023-12-28T05:09:37;100255.81;;;11.05;64.02
30730;BME280;17476;48.458;7.928;2023-12-28T05:12:04;100246.50;;;11.11;61.24
30730;BME280;17476;48.458;7.928;2023-12-28T05:14:29;100244.56;;;11.13;60.11
30730;BME280;17476;48.458;7.928;2023-12-28T05:16:55;100247.16;;;11.13;59.72
30730;BME280;17476;48.458;7.928;2023-12-28T05:19:21;100247.50;;;11.18;58.42
30730;BME280;17476;48.458;7.928;2023-12-28T05:21:47;100240.59;;;11.09;59.54
30730;BME280;17476;48.458;7.928;2023-12-28T05:24:13;100237.63;;;11.04;58.29
30730;BME280;17476;48.458;7.928;2023-12-28T05:26:39;100230.94;;;11.01;58.69
30730;BME280;17476;48.458;7.928;2023-12-28T05:29:04;100227.69;;;11.15;59.20
30730;BME280;17476;48.458;7.928;2023-12-28T05:31:30;100235.53;;;11.15;60.12
30730;BME280;17476;48.458;7.928;2023-12-28T05:33:56;100231.50;;;11.29;64.13
30730;BME280;17476;48.458;7.928;2023-12-28T05:36:24;100227.59;;;11.33;63.72
30730;BME280;17476;48.458;7.928;2023-12-28T05:38:50;100235.25;;;11.35;65.46
30730;BME280;17476;48.458;7.928;2023-12-28T05:41:16;100227.41;;;11.35;65.04
30730;BME280;17476;48.458;7.928;2023-12-28T05:43:42;100237.53;;;11.30;63.82
30730;BME280;17476;48.458;7.928;2023-12-28T05:46:08;100231.31;;;11.23;61.19
30730;BME280;17476;48.458;7.928;2023-12-28T05:48:34;100232.41;;;11.04;60.41
30730;BME280;17476;48.458;7.928;2023-12-28T05:51:00;100225.53;;;11.03;58.38
30730;BME280;17476;48.458;7.928;2023-12-28T05:53:26;100227.88;;;11.14;57.80
30730;BME280;17476;48.458;7.928;2023-12-28T05:55:53;100222.63;;;11.14;58.42
30730;BME280;17476;48.458;7.928;2023-12-28T05:58:19;100232.06;;;10.99;60.54
30730;BME280;17476;48.458;7.928;2023-12-28T06:00:44;100225.97;;;10.90;62.47
30730;BME280;17476;48.458;7.928;2023-12-28T06:03:14;100222.88;;;10.86;62.74
30730;BME280;17476;48.458;7.928;2023-12-28T06:05:40;100220.75;;;10.90;62.75
30730;BME280;17476;48.458;7.928;2023-12-28T06:08:06;100231.72;;;10.93;62.06
30730;BME280;17476;48.458;7.928;2023-12-28T06:10:32;100243.19;;;11.01;62.18
30730;BME280;17476;48.458;7.928;2023-12-28T06:12:58;100240.41;;;11.02;61.37
30730;BME280;17476;48.458;7.928;2023-12-28T06:15:24;100239.97;;;11.15;60.08
30730;BME280;17476;48.458;7.928;2023-12-28T06:17:49;100234.09;;;11.29;60.48
30730;BME280;17476;48.458;7.928;2023-12-28T06:20:15;100238.69;;;11.27;59.94
30730;BME280;17476;48.458;7.928;2023-12-28T06:22:41;100240.22;;;11.54;57.45
30730;BME280;17476;48.458;7.928;2023-12-28T06:25:07;100258.53;;;11.62;57.15
30730;BME280;17476;48.458;7.928;2023-12-28T06:27:33;100256.09;;;11.77;55.93
30730;BME280;17476;48.458;7.928;2023-12-28T06:29:59;100265.59;;;11.70;56.48
30730;BME280;17476;48.458;7.928;2023-12-28T06:32:25;100259.38;;;11.79;55.24
30730;BME280;17476;48.458;7.928;2023-12-28T06:34:50;100255.09;;;11.70;55.89
30730;BME280;17476;48.458;7.928;2023-12-28T06:37:16;100258.06;;;11.67;56.24
30730;BME280;17476;48.458;7.928;2023-12-28T06:39:43;100254.94;;;11.63;55.75
30730;BME280;17476;48.458;7.928;2023-12-28T06:42:08;100256.44;;;11.66;55.59
30730;BME280;17476;48.458;7.928;2023-12-28T06:44:34;100259.34;;;11.63;55.44
30730;BME280;17476;48.458;7.928;2023-12-28T06:47:00;100251.66;;;11.69;54.69
30730;BME280;17476;48.458;7.928;2023-12-28T06:49:26;100251.50;;;11.71;54.45
30730;BME280;17476;48.458;7.928;2023-12-28T06:51:52;100243.63;;;11.71;54.48
30730;BME280;17476;48.458;7.928;2023-12-28T06:54:18;100238.56;;;11.69;55.34
30730;BME280;17476;48.458;7.928;2023-12-28T06:56:43;100240.72;;;11.66;54.88
30730;BME280;17476;48.458;7.928;2023-12-28T06:59:09;100245.63;;;11.61;55.79
30730;BME280;17476;48.458;7.928;2023-12-28T07:01:39;100243.16;;;11.67;55.87
30730;BME280;17476;48.458;7.928;2023-12-28T07:04:05;100252.66;;;11.60;55.28
30730;BME280;17476;48.458;7.928;2023-12-28T07:06:31;100261.00;;;11.56;55.56
30730;BME280;17476;48.458;7.928;2023-12-28T07:08:57;100265.75;;;11.60;55.53
30730;BME280;17476;48.458;7.928;2023-12-28T07:11:22;100270.47;;;11.57;55.85
30730;BME280;17476;48.458;7.928;2023-12-28T07:13:48;100272.94;;;11.58;55.17
30730;BME280;17476;48.458;7.928;2023-12-28T07:16:14;100269.84;;;11.63;55.36
30730;BME280;17476;48.458;7.928;2023-12-28T07:18:41;100275.91;;;11.63;55.00
30730;BME280;17476;48.458;7.928;2023-12-28T07:21:07;100278.50;;;11.55;57.21
30730;BME280;17476;48.458;7.928;2023-12-28T07:23:36;100284.91;;;11.69;57.15
30730;BME280;17476;48.458;7.928;2023-12-28T07:26:02;100286.38;;;11.71;58.56
30730;BME280;17476;48.458;7.928;2023-12-28T07:28:28;100288.88;;;11.81;58.20
30730;BME280;17476;48.458;7.928;2023-12-28T07:30:54;100293.78;;;11.84;58.07
30730;BME280;17476;48.458;7.928;2023-12-28T07:33:20;100290.53;;;11.82;57.81
30730;BME280;17476;48.458;7.928;2023-12-28T07:35:46;100299.66;;;11.78;56.83
30730;BME280;17476;48.458;7.928;2023-12-28T07:38:12;100303.19;;;11.36;57.81
30730;BME280;17476;48.458;7.928;2023-12-28T07:40:38;100311.78;;;11.12;59.29
30730;BME280;17476;48.458;7.928;2023-12-28T07:43:04;100311.84;;;10.86;60.05
30730;BME280;17476;48.458;7.928;2023-12-28T07:45:30;100313.59;;;10.78;60.13
30730;BME280;17476;48.458;7.928;2023-12-28T07:47:59;100316.22;;;10.78;59.74
30730;BME280;17476;48.458;7.928;2023-12-28T07:50:25;100309.81;;;10.72;59.99
30730;BME280;17476;48.458;7.928;2023-12-28T07:52:51;100311.22;;;10.66;59.65
30730;BME280;17476;48.458;7.928;2023-12-28T07:55:16;100314.91;;;10.82;60.34
30730;BME280;17476;48.458;7.928;2023-12-28T07:57:42;100330.63;;;10.90;60.99
30730;BME280;17476;48.458;7.928;2023-12-28T08:00:09;100334.59;;;10.94;62.79
30730;BME280;17476;48.458;7.928;2023-12-28T08:02:35;100342.22;;;11.13;62.58
30730;BME280;17476;48.458;7.928;2023-12-28T08:05:04;100344.81;;;11.05;60.52
30730;BME280;17476;48.458;7.928;2023-12-28T08:07:30;100325.13;;;10.93;60.00
30730;BME280;17476;48.458;7.928;2023-12-28T08:09:56;100324.31;;;11.01;59.91
30730;BME280;17476;48.458;7.928;2023-12-28T08:12:22;100320.28;;;11.06;59.61
30730;BME280;17476;48.458;7.928;2023-12-28T08:14:50;100322.66;;;10.91;59.20
30730;BME280;17476;48.458;7.928;2023-12-28T08:17:16;100332.53;;;11.06;59.74
30730;BME280;17476;48.458;7.928;2023-12-28T08:19:41;100337.22;;;10.94;59.69
30730;BME280;17476;48.458;7.928;2023-12-28T08:22:07;100337.41;;;11.01;59.04
30730;BME280;17476;48.458;7.928;2023-12-28T08:24:33;100341.69;;;11.10;58.74
30730;BME280;17476;48.458;7.928;2023-12-28T08:26:59;100342.31;;;11.04;60.83
30730;BME280;17476;48.458;7.928;2023-12-28T08:29:26;100333.38;;;11.14;62.42
30730;BME280;17476;48.458;7.928;2023-12-28T08:31:52;100338.97;;;10.85;64.18
30730;BME280;17476;48.458;7.928;2023-12-28T08:34:18;100350.44;;;10.84;66.04
30730;BME280;17476;48.458;7.928;2023-12-28T08:36:44;100346.88;;;10.93;65.79
30730;BME280;17476;48.458;7.928;2023-12-28T08:39:09;100348.78;;;10.57;66.43
30730;BME280;17476;48.458;7.928;2023-12-28T08:41:35;100359.97;;;10.50;65.67
30730;BME280;17476;48.458;7.928;2023-12-28T08:44:01;100356.69;;;10.65;66.01
30730;BME280;17476;48.458;7.928;2023-12-28T08:46:27;100368.75;;;10.84;65.83
30730;BME280;17476;48.458;7.928;2023-12-28T08:48:53;100366.16;;;10.92;62.66
30730;BME280;17476;48.458;7.928;2023-12-28T08:51:19;100376.72;;;10.83;62.60
30730;BME280;17476;48.458;7.928;2023-12-28T08:53:46;100373.47;;;10.89;62.73
30730;BME280;17476;48.458;7.928;2023-12-28T08:56:20;100379.09;;;10.68;62.17
30730;BME280;17476;48.458;7.928;2023-12-28T08:58:47;100378.47;;;10.74;60.96
30730;BME280;17476;48.458;7.928;2023-12-28T09:01:20;100391.81;;;10.89;61.29
30730;BME280;17476;48.458;7.928;2023-12-28T09:03:49;100391.81;;;10.89;61.08
30730;BME280;17476;48.458;7.928;2023-12-28T09:06:16;100393.31;;;10.91;61.13
30730;BME280;17476;48.458;7.928;2023-12-28T09:08:46;100393.16;;;10.93;61.07
30730;BME280;17476;48.458;7.928;2023-12-28T09:11:14;100390.06;;;10.98;61.05
30730;BME280;17476;48.458;7.928;2023-12-28T09:13:40;100383.69;;;11.00;60.75
30730;BME280;17476;48.458;7.928;2023-12-28T09:16:10;100381.69;;;11.20;60.02
30730;BME280;17476;48.458;7.928;2023-12-28T09:18:36;100374.19;;;11.25;60.58
30730;BME280;17476;48.458;7.928;2023-12-28T09:21:06;100372.25;;;11.35;61.26
30730;BME280;17476;48.458;7.928;2023-12-28T09:26:04;100367.72;;;11.45;62.57
30730;BME280;17476;48.458;7.928;2023-12-28T09:28:32;100370.84;;;11.57;63.48
30730;BME280;17476;48.458;7.928;2023-12-28T09:30:58;100372.53;;;11.66;63.44
30730;BME280;17476;48.458;7.928;2023-12-28T09:33:24;100379.22;;;11.69;65.76
30730;BME280;17476;48.458;7.928;2023-12-28T09:35:49;100377.31;;;11.79;66.67
30730;BME280;17476;48.458;7.928;2023-12-28T09:38:15;100376.13;;;11.65;66.09
30730;BME280;17476;48.458;7.928;2023-12-28T09:40:42;100375.78;;;11.68;66.76
30730;BME280;17476;48.458;7.928;2023-12-28T09:43:21;100383.38;;;11.80;66.57
30730;BME280;17476;48.458;7.928;2023-12-28T09:45:48;100370.59;;;11.85;66.56
30730;BME280;17476;48.458;7.928;2023-12-28T09:48:20;100374.03;;;11.85;65.28
30730;BME280;17476;48.458;7.928;2023-12-28T09:50:49;100377.34;;;11.87;65.35
30730;BME280;17476;48.458;7.928;2023-12-28T09:53:16;100370.13;;;11.89;68.33
30730;BME280;17476;48.458;7.928;2023-12-28T09:55:44;100362.28;;;11.89;67.12
30730;BME280;17476;48.458;7.928;2023-12-28T09:58:13;100353.25;;;11.84;66.43
30730;BME280;17476;48.458;7.928;2023-12-28T10:00:45;100358.81;;;11.81;63.95
30730;BME280;17476;48.458;7.928;2023-12-28T10:03:13;100351.75;;;11.73;64.42
30730;BME280;17476;48.458;7.928;2023-12-28T10:05:43;100356.81;;;11.74;64.94
30730;BME280;17476;48.458;7.928;2023-12-28T10:08:11;100339.84;;;11.87;67.26
30730;BME280;17476;48.458;7.928;2023-12-28T10:10:42;100342.47;;;11.95;70.70
30730;BME280;17476;48.458;7.928;2023-12-28T10:13:09;100350.00;;;11.98;70.16
30730;BME280;17476;48.458;7.928;2023-12-28T10:15:38;100344.59;;;11.99;71.11
30730;BME280;17476;48.458;7.928;2023-12-28T10:18:05;100341.00;;;12.00;71.86
30730;BME280;17476;48.458;7.928;2023-12-28T10:20:31;100342.00;;;11.99;72.54
30730;BME280;17476;48.458;7.928;2023-12-28T10:23:00;100340.31;;;11.90;67.79
30730;BME280;17476;48.458;7.928;2023-12-28T10:25:27;100345.91;;;11.87;66.44
30730;BME280;17476;48.458;7.928;2023-12-28T10:27:54;100349.50;;;11.86;72.14
30730;BME280;17476;48.458;7.928;2023-12-28T10:30:21;100345.97;;;11.61;66.19
30730;BME280;17476;48.458;7.928;2023-12-28T10:32:47;100349.13;;;11.73;69.70
30730;BME280;17476;48.458;7.928;2023-12-28T10:35:13;100339.34;;;11.83;67.75
30730;BME280;17476;48.458;7.928;2023-12-28T10:37:40;100339.50;;;11.82;68.21
30730;BME280;17476;48.458;7.928;2023-12-28T10:40:13;100338.69;;;11.97;68.42
30730;BME280;17476;48.458;7.928;2023-12-28T10:42:52;100333.91;;;11.85;70.74
30730;BME280;17476;48.458;7.928;2023-12-28T10:45:19;100336.88;;;11.82;71.61
30730;BME280;17476;48.458;7.928;2023-12-28T10:48:09;100340.91;;;11.68;73.08
30730;BME280;17476;48.458;7.928;2023-12-28T10:50:49;100344.53;;;11.75;71.87
30730;BME280;17476;48.458;7.928;2023-12-28T10:53:38;100341.00;;;11.34;76.20
30730;BME280;17476;48.458;7.928;2023-12-28T10:56:41;100340.56;;;11.55;75.24
30730;BME280;17476;48.458;7.928;2023-12-28T11:02:00;100329.72;;;11.49;76.62
30730;BME280;17476;48.458;7.928;2023-12-28T11:07:57;100317.81;;;11.05;76.69
30730;BME280;17476;48.458;7.928;2023-12-28T11:10:53;100320.13;;;11.16;78.60
30730;BME280;17476;48.458;7.928;2023-12-28T11:13:20;100311.72;;;11.38;76.96
30730;BME280;17476;48.458;7.928;2023-12-28T11:15:48;100318.31;;;11.08;79.59
30730;BME280;17476;48.458;7.928;2023-12-28T11:18:15;100320.13;;;11.16;81.54
30730;BME280;17476;48.458;7.928;2023-12-28T11:20:43;100307.78;;;11.51;82.97
30730;BME280;17476;48.458;7.928;2023-12-28T11:23:10;100309.78;;;11.65;81.33
30730;BME280;17476;48.458;7.928;2023-12-28T11:25:37;100304.25;;;11.76;81.45
30730;BME280;17476;48.458;7.928;2023-12-28T11:28:10;100302.81;;;11.82;85.20
30730;BME280;17476;48.458;7.928;2023-12-28T11:30:37;100298.22;;;11.84;84.99
30730;BME280;17476;48.458;7.928;2023-12-28T11:33:04;100309.66;;;11.66;85.61
30730;BME280;17476;48.458;7.928;2023-12-28T11:35:36;100315.38;;;11.70;86.20
30730;BME280;17476;48.458;7.928;2023-12-28T11:38:03;100315.88;;;11.65;86.13
30730;BME280;17476;48.458;7.928;2023-12-28T11:40:44;100314.72;;;11.68;90.25
30730;BME280;17476;48.458;7.928;2023-12-28T11:43:19;100301.44;;;11.53;92.82
30730;BME280;17476;48.458;7.928;2023-12-28T11:45:55;100302.56;;;11.51;93.03
30730;BME280;17476;48.458;7.928;2023-12-28T11:48:28;100301.75;;;11.50;92.68
30730;BME280;17476;48.458;7.928;2023-12-28T11:50:59;100301.75;;;11.50;94.55
30730;BME280;17476;48.458;7.928;2023-12-28T11:53:26;100301.75;;;11.50;95.44
30730;BME280;17476;48.458;7.928;2023-12-28T11:55:52;100296.38;;;11.52;91.37
30730;BME280;17476;48.458;7.928;2023-12-28T11:58:24;100298.97;;;11.52;94.21
30730;BME280;17476;48.458;7.928;2023-12-28T12:00:50;100303.25;;;11.53;94.21
30730;BME280;17476;48.458;7.928;2023-12-28T12:03:16;100300.28;;;11.56;94.94
30730;BME280;17476;48.458;7.928;2023-12-28T12:05:41;100306.34;;;11.56;95.50
30730;BME280;17476;48.458;7.928;2023-12-28T12:08:09;100308.78;;;11.58;96.13
30730;BME280;17476;48.458;7.928;2023-12-28T12:10:39;100306.03;;;11.59;94.51
30730;BME280;17476;48.458;7.928;2023-12-28T12:13:05;100306.84;;;11.52;92.17
30730;BME280;17476;48.458;7.928;2023-12-28T12:15:31;100304.22;;;11.60;90.79
30730;BME280;17476;48.458;7.928;2023-12-28T12:17:57;100314.00;;;11.49;92.13
30730;BME280;17476;48.458;7.928;2023-12-28T12:20:23;100305.50;;;11.47;90.37
30730;BME280;17476;48.458;7.928;2023-12-28T12:22:48;100303.72;;;11.56;92.89
30730;BME280;17476;48.458;7.928;2023-12-28T12:25:18;100313.06;;;11.59;94.44
30730;BME280;17476;48.458;7.928;2023-12-28T12:27:45;100308.66;;;11.59;96.33
30730;BME280;17476;48.458;7.928;2023-12-28T12:30:11;100311.59;;;11.64;94.19
30730;BME280;17476;48.458;7.928;2023-12-28T12:32:37;100319.44;;;11.64;96.93
30730;BME280;17476;48.458;7.928;2023-12-28T12:35:06;100323.88;;;11.64;100.00
30730;BME280;17476;48.458;7.928;2023-12-28T12:37:32;100315.53;;;11.60;99.89
30730;BME280;17476;48.458;7.928;2023-12-28T12:39:58;100317.66;;;11.65;98.04
30730;BME280;17476;48.458;7.928;2023-12-28T12:42:24;100314.50;;;11.45;99.41
30730;BME280;17476;48.458;7.928;2023-12-28T12:44:50;100305.84;;;11.53;100.00
30730;BME280;17476;48.458;7.928;2023-12-28T12:47:15;100310.41;;;11.42;100.00
30730;BME280;17476;48.458;7.928;2023-12-28T12:49:41;100311.72;;;11.46;100.00
30730;BME280;17476;48.458;7.928;2023-12-28T12:52:09;100311.91;;;11.45;100.00
30730;BME280;17476;48.458;7.928;2023-12-28T12:54:35;100309.09;;;11.38;100.00
30730;BME280;17476;48.458;7.928;2023-12-28T12:57:01;100303.31;;;11.27;100.00
30730;BME280;17476;48.458;7.928;2023-12-28T12:59:28;100318.03;;;11.19;100.00
30730;BME280;17476;48.458;7.928;2023-12-28T13:01:53;100313.28;;;11.23;100.00